Terminal Aerodrome Forecast
Issued by NWS

Home | Current Version | Previous Version | Text Only | Print | Product List | Glossary On
Versions: 1 2 3 4 5 6 7 8 9 10 11 12 13 14 15 16 17 18 19 20 21 22 23 24
000
FTUS41 KPHI 162353 CCA
TAFMIV
TAF COR
KMIV 162353Z 1700/1724 VRB02KT P6SM BKN035 OVC080
      TEMPO 1703/1707 6SM -SHRA OVC025
     FM170700 VRB03KT P6SM OVC025
      TEMPO 1707/1711 5SM -SHRA BR OVC015
     FM171100 14003KT 3SM -RA BR OVC009
     FM171500 15005KT 1SM -RA BR OVC005
     FM172100 17005KT 2SM -DZ BR OVC004=

USA.gov is the U.S. government's official web portal to all federal, state and local government web resources and services.